Time;durP1;ratioP1;P1;durP2;ratioP2;P2;SDS_P1;SDS_P2;PMS_P1;PMS_P2;Temp;Humidity;BMP_temperature;BMP_pressure;BME280_temperature;BME280_humidity;BME280_pressure;Samples;Min_cycle;Max_cycle;Signal;HPM_P1;HPM_P2
2023/12/08 00:00:25;;;;;;;64.97;25.88;;;-2.20;99.90;;;;;;5096298;28;20473;-63
2023/12/08 00:02:50;;;;;;;72.93;28.45;;;-2.40;99.90;;;;;;5097794;28;20020;-64
2023/12/08 00:05:16;;;;;;;61.90;28.80;;;-2.50;99.90;;;;;;5097305;28;20093;-63
2023/12/08 00:07:41;;;;;;;58.63;26.42;;;-2.30;99.90;;;;;;5096975;28;20024;-64
2023/12/08 00:10:07;;;;;;;65.60;27.67;;;-1.60;99.90;;;;;;5096263;28;20456;-63
2023/12/08 00:12:33;;;;;;;65.40;28.13;;;-2.50;99.90;;;;;;5095658;28;20054;-63
2023/12/08 00:14:59;;;;;;;64.78;26.73;;;-2.50;99.90;;;;;;5095937;28;20028;-64
2023/12/08 00:17:24;;;;;;;58.55;26.20;;;-2.40;99.90;;;;;;5077050;28;20123;-64
2023/12/08 00:19:52;;;;;;;64.97;27.73;;;-2.50;99.90;;;;;;5076798;28;20453;-64
2023/12/08 00:22:18;;;;;;;65.13;27.23;;;-2.50;99.90;;;;;;5077163;28;20027;-66
2023/12/08 00:24:44;;;;;;;88.68;30.40;;;-2.50;99.90;;;;;;5095744;28;20036;-68
2023/12/08 00:27:10;;;;;;;73.85;29.92;;;-2.40;99.90;;;;;;5095887;28;20469;-63
2023/12/08 00:29:35;;;;;;;89.68;31.40;;;-2.40;99.90;;;;;;5096153;28;20035;-63
2023/12/08 00:32:01;;;;;;;94.32;31.98;;;-2.40;99.90;;;;;;5097042;28;20048;-64
2023/12/08 00:34:27;;;;;;;101.40;33.28;;;-2.40;99.90;;;;;;5097433;28;20032;-64
2023/12/08 00:36:52;;;;;;;90.70;30.13;;;-2.40;99.90;;;;;;5097318;28;20028;-64
2023/12/08 00:39:18;;;;;;;97.78;29.58;;;-2.40;99.90;;;;;;5096033;28;20350;-63
2023/12/08 00:41:44;;;;;;;104.78;32.05;;;-2.30;99.90;;;;;;5078333;28;20463;-67
2023/12/08 00:44:09;;;;;;;109.95;31.25;;;-2.20;99.90;;;;;;5095223;28;20110;-64
2023/12/08 00:46:35;;;;;;;90.82;31.33;;;-2.30;99.90;;;;;;5095392;28;20020;-63
2023/12/08 00:49:01;;;;;;;125.65;33.92;;;-2.10;99.90;;;;;;5094698;28;20111;-63
2023/12/08 00:51:26;;;;;;;91.45;31.52;;;-2.30;99.90;;;;;;5095340;28;20054;-63
2023/12/08 00:53:52;;;;;;;129.80;34.90;;;-2.30;99.90;;;;;;5096572;28;20031;-63
2023/12/08 00:56:18;;;;;;;100.47;32.97;;;-1.70;99.90;;;;;;5078969;28;20024;-63
2023/12/08 00:58:43;;;;;;;84.82;31.45;;;-2.00;99.90;;;;;;5078827;28;20031;-64
2023/12/08 01:01:09;;;;;;;88.65;33.20;;;-1.80;99.90;;;;;;5096542;28;20024;-64
2023/12/08 01:03:35;;;;;;;92.40;32.63;;;-2.30;99.90;;;;;;5076634;28;20460;-63
2023/12/08 01:06:01;;;;;;;87.43;32.53;;;-1.90;99.90;;;;;;5093761;28;20530;-63
2023/12/08 01:08:26;;;;;;;79.70;30.25;;;-2.30;99.90;;;;;;5075351;28;20030;-63
2023/12/08 01:10:52;;;;;;;94.05;32.10;;;-2.30;99.90;;;;;;5093477;28;20028;-63
2023/12/08 01:13:19;;;;;;;79.32;30.23;;;-2.30;99.90;;;;;;5075635;28;20032;-63
2023/12/08 01:15:45;;;;;;;94.13;31.00;;;-2.30;99.90;;;;;;5093730;28;20024;-63
2023/12/08 01:18:11;;;;;;;84.75;32.30;;;-2.40;99.90;;;;;;5076117;28;20028;-63
2023/12/08 01:20:36;;;;;;;83.05;29.08;;;-1.70;99.90;;;;;;5093824;28;20354;-63
2023/12/08 01:23:02;;;;;;;88.53;31.13;;;-2.20;99.90;;;;;;5094638;28;20020;-63
2023/12/08 01:25:27;;;;;;;86.07;30.90;;;-2.40;99.90;;;;;;5094493;28;20505;-63
2023/12/08 01:27:55;;;;;;;93.80;31.88;;;-1.50;99.90;;;;;;5094488;28;20450;-63
2023/12/08 01:30:21;;;;;;;92.47;30.90;;;-2.40;99.90;;;;;;5094277;28;20039;-63
2023/12/08 01:32:46;;;;;;;78.80;30.27;;;-2.30;99.90;;;;;;5093845;28;20044;-63
2023/12/08 01:35:12;;;;;;;92.60;31.35;;;-2.40;99.90;;;;;;5076126;28;20469;-64
2023/12/08 01:37:38;;;;;;;92.50;30.80;;;-2.40;99.90;;;;;;5075849;28;20063;-63
2023/12/08 01:40:06;;;;;;;81.20;30.95;;;-2.40;99.90;;;;;;5094498;28;20016;-63
2023/12/08 01:42:32;;;;;;;90.35;30.55;;;-2.40;99.90;;;;;;5094315;28;20024;-63
2023/12/08 01:44:58;;;;;;;95.25;30.80;;;-2.40;99.90;;;;;;5094323;28;20040;-63
2023/12/08 01:47:23;;;;;;;81.78;30.75;;;-2.30;99.90;;;;;;5076292;28;20024;-63
2023/12/08 01:49:50;;;;;;;83.03;31.35;;;-2.40;99.90;;;;;;5094489;28;20111;-63
2023/12/08 01:52:24;;;;;;;96.43;30.00;;;-2.50;99.90;;;;;;5097305;28;20461;-63
2023/12/08 01:54:57;;;;;;;81.22;29.73;;;-0.80;99.90;;;;;;5097457;28;20036;-63
2023/12/08 01:57:23;;;;;;;84.60;29.50;;;-2.40;99.90;;;;;;5098289;28;20107;-64
2023/12/08 01:59:50;;;;;;;83.20;28.55;;;-2.30;99.90;;;;;;5081295;28;20024;-63
2023/12/08 02:02:17;;;;;;;79.05;28.90;;;-2.50;99.90;;;;;;5079724;28;20028;-63
2023/12/08 02:04:45;;;;;;;74.72;28.75;;;-2.50;99.90;;;;;;5096980;28;20393;-63
2023/12/08 02:07:11;;;;;;;73.93;29.00;;;-2.50;99.90;;;;;;5078759;28;20469;-63
2023/12/08 02:09:37;;;;;;;68.32;27.33;;;-2.60;99.90;;;;;;5078746;28;20111;-63
2023/12/08 02:12:04;;;;;;;65.18;27.13;;;-2.60;99.90;;;;;;5078643;28;20024;-63
2023/12/08 02:14:30;;;;;;;69.95;28.33;;;-2.70;99.90;;;;;;5078848;28;20028;-63
2023/12/08 02:17:05;;;;;;;65.95;25.98;;;-2.70;99.90;;;;;;5097199;28;20028;-64
2023/12/08 02:19:31;;;;;;;76.28;28.55;;;-2.80;99.90;;;;;;5096835;28;20145;-63
2023/12/08 02:21:57;;;;;;;66.68;25.67;;;-2.80;99.90;;;;;;5096825;28;20030;-63
2023/12/08 02:24:22;;;;;;;72.40;25.92;;;-2.90;99.90;;;;;;5096755;28;20024;-63
2023/12/08 02:26:49;;;;;;;66.85;24.98;;;-2.90;99.90;;;;;;5096999;28;20026;-63
2023/12/08 02:29:15;;;;;;;65.95;26.20;;;-3.00;99.90;;;;;;5096833;28;20032;-63
2023/12/08 02:32:04;;;;;;;63.72;25.05;;;-3.00;99.90;;;;;;5078162;28;20119;-62
2023/12/08 02:34:31;;;;;;;65.18;25.33;;;-1.40;99.90;;;;;;5095686;28;20501;-63
2023/12/08 02:36:59;;;;;;;63.38;24.88;;;-3.20;99.90;;;;;;5096495;28;20051;-63
2023/12/08 02:39:27;;;;;;;63.47;24.77;;;-1.80;99.90;;;;;;5096652;28;20028;-63
2023/12/08 02:41:53;;;;;;;56.80;23.77;;;-2.40;99.90;;;;;;5078398;28;20028;-63
2023/12/08 02:44:18;;;;;;;56.75;23.45;;;-3.20;99.90;;;;;;5096112;28;20449;-63
2023/12/08 02:46:44;;;;;;;65.70;24.50;;;-3.30;99.90;;;;;;5096069;28;20059;-63
2023/12/08 02:49:10;;;;;;;55.17;22.42;;;-3.30;99.90;;;;;;5096756;28;20070;-63
2023/12/08 02:51:35;;;;;;;56.00;22.67;;;-3.30;99.90;;;;;;5096043;28;20123;-68
2023/12/08 02:54:01;;;;;;;55.13;23.95;;;-3.30;99.90;;;;;;5096305;28;20060;-63
2023/12/08 02:56:27;;;;;;;61.10;23.35;;;-3.30;99.90;;;;;;5077908;28;20051;-63
2023/12/08 02:58:52;;;;;;;55.80;23.63;;;-3.40;99.90;;;;;;5096387;28;20059;-63
2023/12/08 03:01:18;;;;;;;58.53;23.35;;;-3.50;99.90;;;;;;5095988;28;20077;-66
2023/12/08 03:03:43;;;;;;;46.58;20.98;;;-3.30;99.90;;;;;;5078585;28;20028;-63
2023/12/08 03:06:09;;;;;;;38.08;17.85;;;-3.50;99.90;;;;;;5096317;28;20489;-63
2023/12/08 03:08:35;;;;;;;44.75;18.20;;;-3.50;99.90;;;;;;5097187;28;20028;-62
2023/12/08 03:11:01;;;;;;;33.60;15.27;;;-2.80;99.90;;;;;;5095528;28;20028;-63
2023/12/08 03:13:28;;;;;;;30.92;14.73;;;-3.30;99.90;;;;;;5096885;28;20046;-63
2023/12/08 03:15:53;;;;;;;42.00;17.67;;;-3.00;99.90;;;;;;5077740;28;20077;-62
2023/12/08 03:18:19;;;;;;;40.08;17.83;;;-3.70;99.90;;;;;;5097404;28;20028;-63
2023/12/08 03:20:44;;;;;;;39.10;17.65;;;-2.00;99.90;;;;;;5098022;28;20102;-63
2023/12/08 03:23:10;;;;;;;54.30;20.60;;;-2.20;99.90;;;;;;5096467;28;20062;-62
2023/12/08 03:25:36;;;;;;;43.47;20.63;;;-2.20;99.90;;;;;;5095482;28;20036;-62
2023/12/08 03:28:01;;;;;;;42.63;19.75;;;-3.40;99.90;;;;;;5095476;28;20020;-63
2023/12/08 03:30:27;;;;;;;44.78;19.60;;;-3.60;99.90;;;;;;5095355;28;20028;-62
2023/12/08 03:32:52;;;;;;;50.03;21.35;;;-3.60;99.90;;;;;;5095581;28;20051;-62
2023/12/08 03:35:20;;;;;;;43.70;20.13;;;-3.60;99.90;;;;;;5094982;28;20111;-63
2023/12/08 03:37:45;;;;;;;46.03;20.17;;;-3.60;99.90;;;;;;5095422;28;20031;-63
2023/12/08 03:40:11;;;;;;;48.10;19.35;;;-2.20;99.90;;;;;;5095546;28;20032;-63
2023/12/08 03:42:37;;;;;;;47.83;20.58;;;-3.70;99.90;;;;;;5097310;28;20020;-62
2023/12/08 03:45:04;;;;;;;44.83;19.23;;;-3.70;99.90;;;;;;5078961;28;20068;-63
2023/12/08 03:47:30;;;;;;;41.55;19.20;;;-3.70;99.90;;;;;;5096487;28;20032;-63
2023/12/08 03:49:55;;;;;;;45.83;19.10;;;-2.70;99.90;;;;;;5096067;28;20024;-63
2023/12/08 03:52:21;;;;;;;42.55;17.75;;;-3.70;99.90;;;;;;5096160;28;20059;-62
2023/12/08 03:54:47;;;;;;;46.80;19.35;;;-3.70;99.90;;;;;;5095949;28;20077;-63
2023/12/08 03:57:12;;;;;;;42.45;18.65;;;-2.40;99.90;;;;;;5095412;28;20070;-62
2023/12/08 03:59:38;;;;;;;45.67;18.83;;;-3.50;99.90;;;;;;5095778;28;20081;-62
2023/12/08 04:02:04;;;;;;;46.75;19.15;;;-3.70;99.90;;;;;;5096885;28;20034;-69
2023/12/08 04:04:29;;;;;;;43.88;18.80;;;-3.70;99.90;;;;;;5096580;28;20362;-63
2023/12/08 04:06:56;;;;;;;45.33;19.20;;;-2.30;99.90;;;;;;5096216;28;20094;-63
2023/12/08 04:09:22;;;;;;;47.40;19.90;;;-2.60;99.90;;;;;;5095056;28;20024;-63
2023/12/08 04:11:47;;;;;;;39.22;18.65;;;-2.40;99.90;;;;;;5096072;28;20039;-67
2023/12/08 04:14:13;;;;;;;42.50;19.02;;;-3.70;99.90;;;;;;5095233;28;20028;-63
2023/12/08 04:16:39;;;;;;;45.97;18.75;;;-1.50;99.90;;;;;;5095439;28;20020;-63
2023/12/08 04:19:05;;;;;;;42.50;18.55;;;-3.30;99.90;;;;;;5094806;28;20024;-63
2023/12/08 04:21:30;;;;;;;42.95;17.83;;;-2.30;99.90;;;;;;5076626;28;20034;-63
2023/12/08 04:23:56;;;;;;;36.28;15.88;;;-3.60;99.90;;;;;;5076479;28;20024;-63
2023/12/08 04:26:24;;;;;;;40.30;16.63;;;-3.70;99.90;;;;;;5076344;28;20467;-63
2023/12/08 04:28:53;;;;;;;36.58;16.00;;;-3.60;99.90;;;;;;5094345;28;20046;-63
2023/12/08 04:31:20;;;;;;;43.05;17.52;;;-3.70;99.90;;;;;;5094391;28;20074;-63
2023/12/08 04:33:46;;;;;;;39.72;16.65;;;-3.70;99.90;;;;;;5094784;28;20047;-63
2023/12/08 04:36:12;;;;;;;40.58;18.17;;;-3.50;99.90;;;;;;5094631;28;20036;-63
2023/12/08 04:38:37;;;;;;;41.05;17.48;;;-3.70;99.90;;;;;;5094304;28;20032;-63
2023/12/08 04:41:03;;;;;;;38.25;16.88;;;-2.90;99.90;;;;;;5093891;28;20024;-63
2023/12/08 04:43:29;;;;;;;39.47;19.25;;;-3.60;99.90;;;;;;5076134;28;20024;-63
2023/12/08 04:45:55;;;;;;;39.03;19.23;;;-3.00;99.90;;;;;;5093636;28;20465;-63
2023/12/08 04:48:21;;;;;;;35.88;17.50;;;-3.40;99.90;;;;;;5093949;28;20449;-63
2023/12/08 04:50:46;;;;;;;37.20;17.60;;;-2.20;99.90;;;;;;5075903;28;20035;-63
2023/12/08 04:53:12;;;;;;;39.67;18.35;;;-3.50;99.90;;;;;;5094194;28;20110;-63
2023/12/08 04:55:38;;;;;;;41.30;19.23;;;-3.50;99.90;;;;;;5075803;28;20028;-63
2023/12/08 04:58:03;;;;;;;43.35;19.38;;;-3.50;99.90;;;;;;5093586;28;20024;-63
2023/12/08 05:00:29;;;;;;;40.60;17.77;;;-3.40;99.90;;;;;;5093872;28;20039;-63
2023/12/08 05:02:58;;;;;;;39.88;17.67;;;-1.50;99.90;;;;;;5093840;28;20497;-63
2023/12/08 05:05:24;;;;;;;;;;;-3.30;99.90;;;;;;5094165;28;20032;-64
2023/12/08 05:07:50;;;;;;;40.45;17.85;;;-3.30;99.90;;;;;;5075681;28;19953;-63
2023/12/08 05:10:16;;;;;;;36.20;17.35;;;-1.70;99.90;;;;;;5093764;28;20020;-63
2023/12/08 05:12:42;;;;;;;47.28;19.85;;;-1.80;99.90;;;;;;5093737;28;20024;-63
2023/12/08 05:15:08;;;;;;;39.03;18.27;;;-3.10;99.90;;;;;;5094144;28;20020;-63
2023/12/08 05:17:34;;;;;;;47.38;19.98;;;-3.10;99.90;;;;;;5093714;28;20419;-63
2023/12/08 05:20:03;;;;;;;38.40;18.10;;;-2.80;99.90;;;;;;5076397;28;20028;-63
2023/12/08 05:22:29;;;;;;;38.53;18.17;;;-3.10;99.90;;;;;;5075663;28;20373;-63
2023/12/08 05:24:55;;;;;;;39.08;18.73;;;-3.10;99.90;;;;;;5094025;28;20032;-63
2023/12/08 05:27:20;;;;;;;38.28;18.38;;;-3.00;99.90;;;;;;5097402;28;20029;-64
2023/12/08 05:29:46;;;;;;;43.88;19.73;;;-1.60;99.90;;;;;;5098192;28;20385;-63
2023/12/08 05:32:12;;;;;;;40.92;19.33;;;-3.00;99.90;;;;;;5079150;28;20101;-64
2023/12/08 05:34:38;;;;;;;44.53;20.50;;;-2.60;99.90;;;;;;5097679;28;20036;-64
2023/12/08 05:37:03;;;;;;;46.95;21.02;;;-3.00;99.90;;;;;;5079487;28;20020;-64
2023/12/08 05:39:29;;;;;;;43.58;19.58;;;-2.90;99.90;;;;;;5079364;28;20051;-63
2023/12/08 05:41:55;;;;;;;46.35;20.48;;;-1.80;99.90;;;;;;5097476;28;20028;-63
2023/12/08 05:44:20;;;;;;;44.65;20.70;;;-2.80;99.90;;;;;;5097109;28;20028;-64
2023/12/08 05:46:46;;;;;;;40.38;19.77;;;-2.60;99.90;;;;;;5097171;28;20028;-64
2023/12/08 05:49:12;;;;;;;42.25;21.23;;;-2.50;99.90;;;;;;5097346;28;20115;-64
2023/12/08 05:51:37;;;;;;;40.80;19.42;;;-2.40;99.90;;;;;;5097376;28;20028;-64
2023/12/08 05:54:03;;;;;;;41.17;18.55;;;-2.60;99.90;;;;;;5096918;28;20035;-64
2023/12/08 05:56:29;;;;;;;46.10;19.80;;;-2.60;99.90;;;;;;5097055;28;20031;-64
2023/12/08 05:58:54;;;;;;;42.42;19.77;;;-2.50;99.90;;;;;;5078989;28;20020;-64
2023/12/08 06:01:21;;;;;;;43.35;19.90;;;-2.20;99.90;;;;;;5096791;28;20028;-64
2023/12/08 06:03:47;;;;;;;41.25;19.23;;;-2.40;99.90;;;;;;5097036;28;20054;-64
2023/12/08 06:06:13;;;;;;;43.28;20.23;;;-2.30;99.90;;;;;;5096819;28;20039;-64
2023/12/08 06:08:38;;;;;;;44.13;18.90;;;-2.10;99.90;;;;;;5096952;28;20457;-64
2023/12/08 06:11:04;;;;;;;46.20;20.52;;;-2.30;99.90;;;;;;5078695;28;20027;-63
2023/12/08 06:13:30;;;;;;;42.00;19.90;;;-2.30;99.90;;;;;;5096869;28;20085;-64
2023/12/08 06:15:56;;;;;;;43.55;20.85;;;-2.20;99.90;;;;;;5096793;28;20525;-64
2023/12/08 06:18:22;;;;;;;42.17;19.52;;;-2.20;99.90;;;;;;5096993;28;20024;-64
2023/12/08 06:20:48;;;;;;;44.13;21.80;;;-2.30;99.90;;;;;;5096704;28;20454;-64
2023/12/08 06:23:13;;;;;;;41.25;19.75;;;-2.20;99.90;;;;;;5096681;28;20028;-64
2023/12/08 06:25:39;;;;;;;46.83;19.52;;;-2.30;99.90;;;;;;5078358;28;20039;-64
2023/12/08 06:28:05;;;;;;;43.28;19.88;;;-2.30;99.90;;;;;;5096628;28;20016;-64
2023/12/08 06:30:30;;;;;;;39.95;19.45;;;-2.30;99.90;;;;;;5078291;28;20461;-64
2023/12/08 06:32:56;;;;;;;43.63;19.85;;;-1.70;99.90;;;;;;5096504;28;20052;-64
2023/12/08 06:35:22;;;;;;;45.17;20.05;;;-1.80;99.90;;;;;;5078278;28;20039;-64
2023/12/08 06:37:47;;;;;;;40.40;19.83;;;-2.10;99.90;;;;;;5095017;28;20027;-64
2023/12/08 06:40:13;;;;;;;40.22;19.98;;;-2.40;99.90;;;;;;5078186;28;20465;-64
2023/12/08 06:42:39;;;;;;;34.28;18.40;;;-2.20;99.90;;;;;;5096627;28;20103;-64
2023/12/08 06:45:06;;;;;;;43.90;18.23;;;-2.50;99.90;;;;;;5096479;28;20032;-64
2023/12/08 06:47:32;;;;;;;42.95;19.92;;;-2.50;99.90;;;;;;5097268;28;20027;-64
2023/12/08 06:49:58;;;;;;;40.40;18.83;;;-2.40;99.90;;;;;;5096989;28;20103;-64
2023/12/08 06:52:24;;;;;;;41.28;19.88;;;-2.40;99.90;;;;;;5079261;28;20110;-68
2023/12/08 06:54:50;;;;;;;39.03;20.10;;;-2.30;99.90;;;;;;5079255;28;20437;-63
2023/12/08 06:57:15;;;;;;;40.17;19.35;;;-2.40;99.90;;;;;;5096558;28;20504;-63
2023/12/08 06:59:41;;;;;;;42.67;19.20;;;-2.40;99.90;;;;;;5096040;28;20032;-63
2023/12/08 07:02:06;;;;;;;43.63;19.88;;;-2.40;99.90;;;;;;5096114;28;20093;-63
2023/12/08 07:04:32;;;;;;;42.05;18.83;;;-1.70;99.90;;;;;;5095609;28;20098;-63
2023/12/08 07:06:58;;;;;;;43.53;19.70;;;-2.30;99.90;;;;;;5077711;28;20020;-65
2023/12/08 07:09:23;;;;;;;40.97;19.13;;;-1.50;99.90;;;;;;5095785;28;20062;-64
2023/12/08 07:11:49;;;;;;;41.28;18.35;;;-2.20;99.90;;;;;;5095545;28;20409;-64
2023/12/08 07:14:15;;;;;;;42.78;20.40;;;-2.10;99.90;;;;;;5077705;28;20385;-64
2023/12/08 07:16:44;;;;;;;46.58;19.65;;;-2.10;99.90;;;;;;5077995;28;20378;-63
2023/12/08 07:19:10;;;;;;;40.25;18.85;;;-2.00;99.90;;;;;;5077608;28;20027;-64
2023/12/08 07:21:43;;;;;;;41.50;18.38;;;-1.90;99.90;;;;;;5077703;28;20089;-64
2023/12/08 07:24:12;;;;;;;43.97;20.10;;;-1.90;99.90;;;;;;5077578;28;20028;-64
2023/12/08 07:26:37;;;;;;;40.58;18.83;;;-1.80;99.90;;;;;;5095151;28;20469;-65
2023/12/08 07:29:03;;;;;;;38.97;18.42;;;-1.60;99.90;;;;;;5095629;28;20034;-64
2023/12/08 07:31:29;;;;;;;35.35;18.10;;;-1.70;99.90;;;;;;5095852;28;20063;-64
2023/12/08 07:33:55;;;;;;;36.45;17.60;;;-1.60;99.90;;;;;;5095573;28;20051;-64
2023/12/08 07:36:21;;;;;;;39.08;19.65;;;-0.50;99.90;;;;;;5095202;28;20031;-64
2023/12/08 07:38:47;;;;;;;35.13;18.92;;;-1.60;99.90;;;;;;5077150;28;20020;-64
2023/12/08 07:41:12;;;;;;;37.75;18.48;;;-1.40;99.90;;;;;;5077706;28;20423;-64
2023/12/08 07:43:38;;;;;;;37.13;18.33;;;-1.40;99.90;;;;;;5077365;28;20020;-64
2023/12/08 07:46:04;;;;;;;35.50;17.20;;;-1.40;99.90;;;;;;5077076;28;20122;-64
2023/12/08 07:48:30;;;;;;;36.85;18.83;;;-1.30;99.90;;;;;;5076495;28;20599;-64
2023/12/08 07:50:55;;;;;;;35.95;18.48;;;-1.20;99.90;;;;;;5095346;28;20024;-65
2023/12/08 07:53:22;;;;;;;36.80;18.08;;;-1.20;99.90;;;;;;5095803;28;20028;-64
2023/12/08 07:55:48;;;;;;;34.88;17.55;;;-1.10;99.90;;;;;;5095673;28;20024;-64
2023/12/08 07:58:14;;;;;;;36.90;16.20;;;-1.00;99.90;;;;;;5094867;28;20024;-64
2023/12/08 08:00:39;;;;;;;36.33;18.48;;;-0.90;99.90;;;;;;5076799;28;20480;-66
2023/12/08 08:03:05;;;;;;;35.20;17.15;;;-0.90;99.90;;;;;;5094480;28;20094;-68
2023/12/08 08:05:31;;;;;;;33.28;16.67;;;-0.70;99.90;;;;;;5094340;28;20479;-64
2023/12/08 08:07:56;;;;;;;30.40;16.55;;;-0.60;99.90;;;;;;5094697;28;20026;-64
2023/12/08 08:10:22;;;;;;;33.03;17.48;;;-0.40;99.90;;;;;;5094657;28;20028;-64
2023/12/08 08:12:48;;;;;;;27.98;16.08;;;-0.30;99.90;;;;;;5094675;28;20024;-64
2023/12/08 08:15:14;;;;;;;32.30;16.63;;;-0.20;99.90;;;;;;5076684;28;20457;-64
2023/12/08 08:17:40;;;;;;;32.30;16.63;;;0.00;99.90;;;;;;5111971;28;20035;-65
2023/12/08 08:20:06;;;;;;;27.33;15.13;;;0.20;99.90;;;;;;5114810;28;20042;-64
2023/12/08 08:22:32;;;;;;;31.73;16.00;;;0.30;99.90;;;;;;5113958;28;20023;-67
2023/12/08 08:25:01;;;;;;;28.30;15.95;;;0.50;99.90;;;;;;5094270;28;20035;-64
2023/12/08 08:27:28;;;;;;;28.92;15.95;;;0.80;99.90;;;;;;5094193;28;20058;-65
2023/12/08 08:29:54;;;;;;;31.42;16.35;;;1.30;99.90;;;;;;5094182;28;20077;-65
2023/12/08 08:32:20;;;;;;;27.48;14.52;;;1.50;99.90;;;;;;5093795;28;20048;-65
2023/12/08 08:34:46;;;;;;;27.08;15.60;;;2.00;99.90;;;;;;5075961;28;20040;-65
2023/12/08 08:37:13;;;;;;;24.90;13.63;;;2.20;99.90;;;;;;5094169;28;20045;-65
2023/12/08 08:39:39;;;;;;;23.17;14.50;;;2.20;99.90;;;;;;5076030;28;20435;-66
2023/12/08 08:42:04;;;;;;;22.48;13.68;;;2.30;99.90;;;;;;5094496;28;20118;-65
2023/12/08 08:44:30;;;;;;;20.58;12.68;;;2.40;99.90;;;;;;5075692;28;20070;-66
2023/12/08 08:46:56;;;;;;;22.38;13.38;;;2.70;99.90;;;;;;5075932;28;20030;-65
2023/12/08 08:49:22;;;;;;;22.77;11.70;;;3.10;99.90;;;;;;5076079;28;20077;-65
2023/12/08 08:51:48;;;;;;;21.20;12.40;;;3.10;99.90;;;;;;5075679;28;20024;-65
2023/12/08 08:54:14;;;;;;;21.83;12.75;;;2.80;99.90;;;;;;5075705;28;20077;-65
2023/12/08 08:56:40;;;;;;;20.00;11.70;;;2.80;99.90;;;;;;5093900;28;20115;-65
2023/12/08 08:59:06;;;;;;;19.88;11.60;;;2.90;99.90;;;;;;5093561;28;20102;-64
2023/12/08 09:01:31;;;;;;;18.30;11.60;;;3.20;99.90;;;;;;5075079;28;20408;-65
2023/12/08 09:03:57;;;;;;;19.42;12.15;;;3.80;99.90;;;;;;5075679;28;20500;-64
2023/12/08 09:06:24;;;;;;;19.48;11.88;;;4.20;99.90;;;;;;5075565;28;20035;-65
2023/12/08 09:08:50;;;;;;;20.42;11.73;;;4.40;99.90;;;;;;5093742;28;20028;-64
2023/12/08 09:11:16;;;;;;;18.08;10.88;;;4.60;99.90;;;;;;5075463;28;20025;-64
2023/12/08 09:13:42;;;;;;;18.15;12.48;;;4.60;99.90;;;;;;5093639;28;20028;-64
2023/12/08 09:16:08;;;;;;;16.58;11.18;;;4.40;99.90;;;;;;5075633;28;20111;-64
2023/12/08 09:18:34;;;;;;;20.88;12.20;;;4.20;99.90;;;;;;5093486;28;20355;-57
2023/12/08 09:20:59;;;;;;;18.52;12.02;;;4.00;99.90;;;;;;5093879;28;20024;-57
2023/12/08 09:23:25;;;;;;;14.77;10.75;;;4.00;99.90;;;;;;5093969;28;20028;-64
2023/12/08 09:25:53;;;;;;;17.77;11.38;;;4.30;99.90;;;;;;5093584;28;20103;-64
2023/12/08 09:28:20;;;;;;;16.63;10.70;;;4.10;99.90;;;;;;5086173;28;20110;-64
2023/12/08 09:30:46;;;;;;;18.77;11.57;;;4.00;99.90;;;;;;5134487;28;20449;-64
2023/12/08 09:33:12;;;;;;;18.67;12.30;;;3.70;99.90;;;;;;5134581;28;20043;-64
2023/12/08 09:35:37;;;;;;;17.83;11.73;;;3.20;99.90;;;;;;5134555;28;20031;-64
2023/12/08 09:38:04;;;;;;;17.60;11.40;;;3.50;99.90;;;;;;5132786;28;20068;-68
2023/12/08 09:40:34;;;;;;;18.35;11.95;;;3.60;99.90;;;;;;5104786;28;20020;-63
2023/12/08 09:43:17;;;;;;;18.77;12.10;;;4.20;99.90;;;;;;5081399;28;20535;-62
2023/12/08 09:45:47;;;;;;;16.70;11.10;;;4.50;99.90;;;;;;5095145;28;20031;-62
2023/12/08 09:48:16;;;;;;;18.27;11.18;;;4.80;99.90;;;;;;5080873;28;20499;-63
2023/12/08 09:50:43;;;;;;;19.10;12.15;;;4.80;99.90;;;;;;5093309;28;20057;-64
2023/12/08 09:53:10;;;;;;;16.52;11.30;;;4.70;99.90;;;;;;5093417;28;20115;-65
2023/12/08 09:55:37;;;;;;;20.13;12.63;;;4.50;99.90;;;;;;5074902;28;20032;-64
2023/12/08 09:58:04;;;;;;;16.95;11.45;;;4.20;99.90;;;;;;5075209;28;20036;-64
2023/12/08 10:00:31;;;;;;;18.95;11.35;;;3.90;99.90;;;;;;5075610;28;20028;-64
2023/12/08 10:02:57;;;;;;;19.23;12.02;;;3.70;99.90;;;;;;5075595;28;20350;-64
2023/12/08 10:05:22;;;;;;;16.38;11.25;;;3.30;99.90;;;;;;5091924;28;20123;-63
2023/12/08 10:07:50;;;;;;;17.58;11.45;;;3.00;99.90;;;;;;5092947;28;20028;-63
2023/12/08 10:10:17;;;;;;;15.40;10.45;;;2.70;99.90;;;;;;5093589;28;20424;-64
2023/12/08 10:12:43;;;;;;;19.67;11.90;;;2.60;99.90;;;;;;5096619;28;20054;-64
2023/12/08 10:15:10;;;;;;;20.05;11.73;;;2.50;99.90;;;;;;5096793;28;20436;-64
2023/12/08 10:17:48;;;;;;;19.02;12.13;;;2.50;99.90;;;;;;5078513;28;20119;-63
2023/12/08 10:20:14;;;;;;;19.55;12.02;;;2.40;99.90;;;;;;5096762;28;20107;-63
2023/12/08 10:22:48;;;;;;;20.63;12.50;;;2.30;99.90;;;;;;5078558;28;20111;-64
2023/12/08 10:25:19;;;;;;;20.05;12.13;;;2.20;99.90;;;;;;5096699;28;20070;-63
2023/12/08 10:27:53;;;;;;;20.55;12.68;;;2.30;99.90;;;;;;5079076;28;20090;-64
2023/12/08 10:30:20;;;;;;;24.52;11.90;;;2.40;99.90;;;;;;5078756;28;20043;-64
2023/12/08 10:32:46;;;;;;;20.33;12.80;;;2.30;99.90;;;;;;5096048;28;20093;-64
2023/12/08 10:35:13;;;;;;;20.52;12.52;;;2.30;99.90;;;;;;5078312;28;20024;-64
2023/12/08 10:37:39;;;;;;;24.27;12.85;;;2.20;99.90;;;;;;5078254;28;20469;-64
2023/12/08 10:40:17;;;;;;;21.25;12.43;;;2.10;99.90;;;;;;5096614;28;20450;-64
2023/12/08 10:42:44;;;;;;;21.42;12.55;;;2.10;99.90;;;;;;5096424;28;20364;-64
2023/12/08 10:45:13;;;;;;;23.83;13.45;;;2.10;99.90;;;;;;5078084;28;20032;-63
2023/12/08 10:47:43;;;;;;;25.63;14.05;;;2.00;99.90;;;;;;5096548;28;20021;-63
2023/12/08 10:50:12;;;;;;;24.20;13.52;;;1.90;99.90;;;;;;5077686;28;20032;-63
2023/12/08 10:52:39;;;;;;;25.35;13.85;;;1.90;99.90;;;;;;5096021;28;20373;-64
2023/12/08 10:55:09;;;;;;;22.20;13.48;;;1.90;99.90;;;;;;5078248;28;20034;-63
2023/12/08 10:57:39;;;;;;;24.75;13.98;;;2.00;99.90;;;;;;5096089;28;20028;-64
2023/12/08 11:00:17;;;;;;;24.50;14.50;;;2.00;99.90;;;;;;5077864;28;20059;-63
2023/12/08 11:02:48;;;;;;;22.77;13.85;;;2.10;99.90;;;;;;5078200;28;20050;-64
2023/12/08 11:05:25;;;;;;;25.08;14.45;;;2.20;99.90;;;;;;5095949;28;20060;-64
2023/12/08 11:07:53;;;;;;;25.38;14.32;;;2.20;99.90;;;;;;5077746;28;20042;-64
2023/12/08 11:10:20;;;;;;;24.50;14.63;;;2.20;99.90;;;;;;5078341;28;20028;-64
2023/12/08 11:12:56;;;;;;;23.00;13.98;;;2.20;99.90;;;;;;5095687;28;20074;-64
2023/12/08 11:15:22;;;;;;;26.65;14.27;;;2.30;99.90;;;;;;5095553;28;20028;-63
2023/12/08 11:18:22;;;;;;;29.23;15.25;;;2.40;99.90;;;;;;5095401;28;20028;-64
2023/12/08 11:20:48;;;;;;;22.83;14.48;;;2.40;99.90;;;;;;5077861;28;20429;-64
2023/12/08 11:23:14;;;;;;;23.13;14.55;;;2.50;99.90;;;;;;5094784;28;20039;-64
2023/12/08 11:25:48;;;;;;;25.13;14.48;;;2.50;99.90;;;;;;5077375;28;20385;-64
2023/12/08 11:28:19;;;;;;;26.85;15.15;;;2.60;99.90;;;;;;5095504;28;20111;-64
2023/12/08 11:30:48;;;;;;;26.15;15.38;;;2.60;99.90;;;;;;5076994;28;20020;-63
2023/12/08 11:33:26;;;;;;;23.40;14.02;;;2.70;99.90;;;;;;5077489;28;20139;-63
2023/12/08 11:35:52;;;;;;;29.75;14.95;;;2.70;99.90;;;;;;5095403;28;20032;-63
2023/12/08 11:38:30;;;;;;;24.70;15.05;;;2.80;99.90;;;;;;5094202;28;20457;-64
2023/12/08 11:40:56;;;;;;;23.50;14.05;;;2.80;99.90;;;;;;5095227;28;20020;-63
2023/12/08 11:43:23;;;;;;;27.00;15.07;;;2.70;99.90;;;;;;5093590;28;20028;-63
2023/12/08 11:45:49;;;;;;;26.67;15.80;;;2.60;99.90;;;;;;5094743;28;20470;-63
2023/12/08 11:48:15;;;;;;;22.15;14.30;;;2.60;99.90;;;;;;5093920;28;20028;-63
2023/12/08 11:50:41;;;;;;;25.90;14.85;;;2.70;99.90;;;;;;5094953;28;20477;-63
2023/12/08 11:53:07;;;;;;;30.52;16.23;;;2.70;99.90;;;;;;5093875;28;20123;-63
2023/12/08 11:55:32;;;;;;;27.67;15.48;;;2.80;99.90;;;;;;5076862;28;20035;-65
2023/12/08 11:58:05;;;;;;;27.00;16.10;;;2.90;99.90;;;;;;5095245;28;20027;-63
2023/12/08 12:00:36;;;;;;;23.73;14.00;;;2.90;99.90;;;;;;5095585;28;20552;-64
2023/12/08 12:03:03;;;;;;;25.75;14.68;;;2.70;99.90;;;;;;5078679;28;20035;-64
2023/12/08 12:05:29;;;;;;;25.33;16.15;;;2.70;99.90;;;;;;5096390;28;20028;-64
2023/12/08 12:07:56;;;;;;;27.52;16.00;;;2.70;99.90;;;;;;5096429;28;20111;-63
2023/12/08 12:10:27;;;;;;;24.73;15.50;;;2.70;99.90;;;;;;5077780;28;20129;-64
2023/12/08 12:12:59;;;;;;;26.60;16.02;;;2.70;99.90;;;;;;5077209;28;20427;-63
2023/12/08 12:15:25;;;;;;;25.65;15.15;;;2.70;99.90;;;;;;5094989;28;20024;-63
2023/12/08 12:17:52;;;;;;;23.73;14.90;;;2.50;99.90;;;;;;5094834;28;20056;-63
2023/12/08 12:20:18;;;;;;;27.67;15.45;;;2.50;99.90;;;;;;5094677;28;20028;-63
2023/12/08 12:22:44;;;;;;;25.67;15.73;;;2.40;99.90;;;;;;5076264;28;20464;-63
2023/12/08 12:25:10;;;;;;;33.22;16.02;;;2.40;99.90;;;;;;5076733;28;20064;-60
2023/12/08 12:27:47;;;;;;;27.63;16.20;;;2.40;99.90;;;;;;5094458;28;20024;-60